createdAt,value
2022-10-21T00:04:17.197Z,8.73
2022-10-21T00:09:19.001Z,10.02
2022-10-21T00:14:20.946Z,7.90
2022-10-21T00:19:22.882Z,8.65
2022-10-21T00:24:24.771Z,8.10
2022-10-21T00:29:26.586Z,5.97
2022-10-21T00:34:30.885Z,9.30
2022-10-21T00:39:33.218Z,9.65
2022-10-21T00:44:35.998Z,7.45
2022-10-21T00:49:42.397Z,11.50
2022-10-21T00:54:47.015Z,15.05
2022-10-21T00:59:53.871Z,10.13
2022-10-21T01:04:59.810Z,8.27
2022-10-21T01:10:01.805Z,12.18
2022-10-21T01:15:31.017Z,10.98
2022-10-21T01:21:03.709Z,9.48
2022-10-21T01:26:14.517Z,11.30
2022-10-21T01:31:41.277Z,8.70
2022-10-21T01:36:57.860Z,8.43
2022-10-21T01:42:25.888Z,10.48
2022-10-21T01:47:34.089Z,15.57
2022-10-21T01:52:36.369Z,16.58
2022-10-21T01:57:44.594Z,9.75
2022-10-21T02:07:51.059Z,15.85
2022-10-21T02:12:56.989Z,11.65
2022-10-21T02:18:08.033Z,9.60
2022-10-21T02:23:15.662Z,11.40
2022-10-21T02:28:19.268Z,9.75
2022-10-21T02:33:43.265Z,13.23
2022-10-21T02:38:49.615Z,7.47
2022-10-21T02:49:16.439Z,12.50
2022-10-21T02:54:18.233Z,10.27
2022-10-21T02:59:20.173Z,12.73
2022-10-21T03:04:22.127Z,11.00
2022-10-21T03:09:23.966Z,13.48
2022-10-21T03:14:25.733Z,13.13
2022-10-21T03:19:27.493Z,8.15
2022-10-21T03:24:29.329Z,11.30
2022-10-21T03:29:31.278Z,8.98
2022-10-21T03:34:33.066Z,10.68
2022-10-21T03:39:34.877Z,14.98
2022-10-21T03:44:36.736Z,12.60
2022-10-21T03:49:38.540Z,12.65
2022-10-21T03:54:40.537Z,13.15
2022-10-21T03:59:42.396Z,11.30
2022-10-21T04:04:44.816Z,10.50
2022-10-21T04:09:46.644Z,14.27
2022-10-21T04:14:48.423Z,14.05
2022-10-21T04:19:50.169Z,13.48
2022-10-21T04:24:52.187Z,16.23
2022-10-21T04:29:54.015Z,13.52
2022-10-21T04:34:55.798Z,14.25
2022-10-21T04:39:57.618Z,14.02
2022-10-21T04:44:59.424Z,12.48
2022-10-21T04:50:01.395Z,15.05
2022-10-21T04:55:03.927Z,14.88
2022-10-21T05:00:07.924Z,15.63
2022-10-21T05:05:10.236Z,14.15
2022-10-21T05:10:12.031Z,15.23
2022-10-21T05:15:14.777Z,17.42
2022-10-21T05:20:16.862Z,14.98
2022-10-21T05:25:19.631Z,14.10
2022-10-21T05:30:21.897Z,17.48
2022-10-21T05:35:23.748Z,15.93
2022-10-21T05:40:25.624Z,13.27
2022-10-21T05:45:27.752Z,12.18
2022-10-21T05:50:29.526Z,14.07
2022-10-21T05:55:31.365Z,14.10
2022-10-21T06:00:33.526Z,13.43
2022-10-21T06:05:35.494Z,12.55
2022-10-21T06:10:37.303Z,15.38
2022-10-21T06:15:39.128Z,16.55
2022-10-21T06:20:40.821Z,14.32
2022-10-21T06:26:00.158Z,14.02
2022-10-21T06:31:02.074Z,11.70
2022-10-21T06:36:04.751Z,20.13
2022-10-21T06:41:12.328Z,12.85
2022-10-21T06:46:16.334Z,15.50
2022-10-21T06:51:22.557Z,12.02
2022-10-21T06:56:26.616Z,12.45
2022-10-21T07:01:41.769Z,17.85
2022-10-21T07:06:55.367Z,12.85
2022-10-21T07:11:57.209Z,14.07
2022-10-21T07:16:59.121Z,16.25
2022-10-21T07:22:04.046Z,21.02
2022-10-21T07:27:06.271Z,16.80
2022-10-21T07:32:08.550Z,14.57
2022-10-21T07:37:10.540Z,14.93
2022-10-21T07:42:12.451Z,15.45
2022-10-21T07:47:14.378Z,16.20
2022-10-21T07:52:16.347Z,14.25
2022-10-21T07:57:18.315Z,11.98
2022-10-21T08:02:20.598Z,12.40
2022-10-21T08:07:22.881Z,14.40
2022-10-21T08:12:25.640Z,12.90
2022-10-21T08:17:27.818Z,11.18
2022-10-21T08:22:29.931Z,12.98
2022-10-21T08:27:31.912Z,12.07
2022-10-21T08:32:33.941Z,15.60
2022-10-21T08:37:35.845Z,13.18
2022-10-21T08:42:42.816Z,22.08
2022-10-21T08:47:49.796Z,12.23
2022-10-21T08:53:00.109Z,13.80
2022-10-21T08:58:03.520Z,12.68
2022-10-21T09:03:28.732Z,12.52
2022-10-21T09:08:42.656Z,12.20
2022-10-21T09:13:51.557Z,11.38
2022-10-21T09:19:02.630Z,17.67
2022-10-21T09:24:13.802Z,17.90
2022-10-21T09:29:15.680Z,16.08
2022-10-21T09:34:29.565Z,16.30
2022-10-21T09:39:42.254Z,18.38
2022-10-21T09:44:45.679Z,11.10
2022-10-21T09:50:06.873Z,18.77
2022-10-21T09:55:14.222Z,12.70
2022-10-21T10:00:16.302Z,14.65
2022-10-21T10:05:33.553Z,16.40
2022-10-21T10:10:35.762Z,12.77
2022-10-21T10:15:37.674Z,15.73
2022-10-21T10:20:39.610Z,13.52
2022-10-21T10:25:41.503Z,12.98
2022-10-21T10:30:43.540Z,10.98
2022-10-21T10:36:00.473Z,14.50
2022-10-21T10:41:18.724Z,11.60
2022-10-21T10:46:34.057Z,11.75
2022-10-21T10:51:36.460Z,12.05
2022-10-21T10:56:43.411Z,10.23
2022-10-21T11:01:54.222Z,9.88
2022-10-21T11:07:13.470Z,13.27
2022-10-21T11:12:25.490Z,10.02
2022-10-21T11:17:39.070Z,7.70
2022-10-21T11:23:00.461Z,8.57
2022-10-21T11:28:29.968Z,10.63
2022-10-21T11:33:45.274Z,10.40
2022-10-21T11:39:13.213Z,10.52
2022-10-21T11:44:52.683Z,7.40
2022-10-21T11:50:16.562Z,9.48
2022-10-21T11:55:41.467Z,9.90
2022-10-21T12:01:17.379Z,11.85
2022-10-21T12:06:19.595Z,9.40
2022-10-21T12:11:27.999Z,7.68
2022-10-21T12:16:34.180Z,10.02
2022-10-21T12:21:39.387Z,10.13
2022-10-21T12:26:51.888Z,12.32
2022-10-21T12:32:07.788Z,9.10
2022-10-21T12:37:46.782Z,10.07
2022-10-21T12:42:59.227Z,14.18
2022-10-21T12:48:02.015Z,14.73
2022-10-21T12:53:03.747Z,9.80
2022-10-21T12:58:17.289Z,9.80
2022-10-21T13:03:22.107Z,10.45
2022-10-21T13:08:27.595Z,17.20
2022-10-21T13:13:39.743Z,15.25
2022-10-21T13:18:51.389Z,15.95
2022-10-21T13:23:54.982Z,13.27
2022-10-21T13:29:02.542Z,17.38
2022-10-21T13:34:04.943Z,18.67
2022-10-21T13:39:35.792Z,18.13
2022-10-21T13:44:41.033Z,15.77
2022-10-21T13:49:50.823Z,16.38
2022-10-21T13:55:24.231Z,14.77
2022-10-21T14:00:30.115Z,18.85
2022-10-21T14:05:37.383Z,17.23
2022-10-21T14:10:47.173Z,27.40
2022-10-21T14:15:49.641Z,18.52
2022-10-21T14:20:53.705Z,15.60
2022-10-21T14:26:04.343Z,13.90
2022-10-21T14:31:09.193Z,14.57
2022-10-21T14:36:15.207Z,11.57
2022-10-21T14:41:22.269Z,10.80
2022-10-21T14:46:24.703Z,7.83
2022-10-21T14:51:28.023Z,9.52
2022-10-21T14:56:35.128Z,9.05
2022-10-21T15:01:43.045Z,10.57
2022-10-21T15:12:18.773Z,9.20
2022-10-21T15:17:22.888Z,6.22
2022-10-21T15:22:29.161Z,6.35
2022-10-21T15:27:41.092Z,6.00
2022-10-21T15:32:45.212Z,7.72
2022-10-21T15:37:51.377Z,6.32
2022-10-21T15:42:53.313Z,6.07
2022-10-21T15:47:55.827Z,7.07
2022-10-21T15:52:57.820Z,8.48
2022-10-21T15:57:59.747Z,8.10
2022-10-21T16:03:02.196Z,6.50
2022-10-21T16:08:04.677Z,8.80
2022-10-21T16:13:06.688Z,8.40
2022-10-21T16:18:14.141Z,8.68
2022-10-21T16:23:15.962Z,7.70
2022-10-21T16:28:17.781Z,6.95
2022-10-21T16:33:19.602Z,7.30
2022-10-21T16:38:21.391Z,7.47
2022-10-21T16:43:24.067Z,9.98
2022-10-21T16:48:26.047Z,9.82
2022-10-21T16:53:29.187Z,9.45
2022-10-21T16:58:31.349Z,11.27
2022-10-21T17:03:34.022Z,10.63
2022-10-21T17:08:36.474Z,6.32
2022-10-21T17:13:38.450Z,7.15
2022-10-21T17:18:40.349Z,8.20
2022-10-21T17:23:42.253Z,6.57
2022-10-21T17:28:44.749Z,8.27
2022-10-21T17:33:47.412Z,7.63
2022-10-21T17:38:49.689Z,8.10
2022-10-21T17:43:51.551Z,8.63
2022-10-21T17:48:55.693Z,9.65
2022-10-21T17:53:57.516Z,12.70
2022-10-21T17:59:01.345Z,15.07
2022-10-21T18:04:03.709Z,7.93
2022-10-21T18:09:08.542Z,9.48
2022-10-21T18:14:10.867Z,10.48
2022-10-21T18:19:12.924Z,9.80
2022-10-21T18:24:14.710Z,12.25
2022-10-21T18:29:16.851Z,9.50
2022-10-21T18:34:18.763Z,10.93
2022-10-21T18:39:20.754Z,9.82
2022-10-21T18:44:22.567Z,8.55
2022-10-21T18:49:24.359Z,6.75
2022-10-21T18:54:26.163Z,7.78
2022-10-21T18:59:27.962Z,5.70
2022-10-21T19:04:29.929Z,7.13
2022-10-21T19:09:31.814Z,7.50
2022-10-21T19:14:34.080Z,9.57
2022-10-21T19:19:39.345Z,7.75
2022-10-21T19:24:41.749Z,5.68
2022-10-21T19:29:43.584Z,6.47
2022-10-21T19:34:45.440Z,9.80
2022-10-21T19:39:47.222Z,5.43
2022-10-21T19:44:48.931Z,4.53
2022-10-21T19:49:50.899Z,5.22
2022-10-21T19:54:53.079Z,5.22
2022-10-21T19:59:56.265Z,4.63
2022-10-21T20:04:58.057Z,4.72
2022-10-21T20:09:59.780Z,4.03
2022-10-21T20:15:01.563Z,4.28
2022-10-21T20:20:04.053Z,3.83
2022-10-21T20:25:06.167Z,5.63
2022-10-21T20:30:09.588Z,6.65
2022-10-21T20:35:11.380Z,4.45
2022-10-21T20:40:13.207Z,5.90
2022-10-21T20:45:15.079Z,32.17
2022-10-21T20:50:16.941Z,4.82
2022-10-21T20:55:19.624Z,3.92
2022-10-21T21:00:21.341Z,4.15
2022-10-21T21:05:23.104Z,3.80
2022-10-21T21:10:24.894Z,3.40
2022-10-21T21:15:26.874Z,6.00
2022-10-21T21:20:28.646Z,3.25
2022-10-21T21:25:30.475Z,3.88
2022-10-21T21:30:32.204Z,3.03
2022-10-21T21:35:33.911Z,3.88
2022-10-21T21:40:35.607Z,3.92
2022-10-21T21:45:37.537Z,3.83
2022-10-21T21:50:40.340Z,4.05
2022-10-21T21:55:42.491Z,3.92
2022-10-21T22:00:44.426Z,3.78
2022-10-21T22:05:46.274Z,4.60
2022-10-21T22:10:48.066Z,3.10
2022-10-21T22:15:49.879Z,4.95
2022-10-21T22:20:51.904Z,3.60
2022-10-21T22:25:54.627Z,2.85
2022-10-21T22:31:04.592Z,2.10
2022-10-21T22:36:06.679Z,2.33
2022-10-21T22:41:12.260Z,2.40
2022-10-21T22:46:33.251Z,2.25
2022-10-21T22:51:36.110Z,3.78
2022-10-21T22:56:38.747Z,1.98
2022-10-21T23:01:40.619Z,3.03
2022-10-21T23:06:42.467Z,7.18
2022-10-21T23:11:46.744Z,5.00
2022-10-21T23:16:48.839Z,2.88
2022-10-21T23:21:50.564Z,2.55
2022-10-21T23:26:52.800Z,14.73
2022-10-21T23:31:57.608Z,5.25
2022-10-21T23:36:59.397Z,2.40
2022-10-21T23:42:01.240Z,4.30
2022-10-21T23:47:03.083Z,2.55
2022-10-21T23:52:06.262Z,5.13
2022-10-21T23:57:08.241Z,2.50
